Terminal Aerodrome Forecast
Issued by NWS Wilmington, NC

Home | Current Version | Previous Version | Text Only | Print | Product List | Glossary On
Versions: 1 2 3 4 5 6 7 8 9 10 11 12 13 14 15 16 17 18 19 20 21 22 23 24 25
000
FTUS42 KILM 280612 CCB
TAFLBT
TAF COR
KLBT 280612Z 2806/2906 05008KT P6SM FEW030 SCT050
     FM280900 04004KT 5SM BR SCT005 BKN015
     FM281300 04008KT P6SM SCT020 SCT050
     FM281800 07008KT P6SM VCTS SCT020CB BKN050
     FM290200 VRB04KT P6SM SCT250=

USA.gov is the U.S. government's official web portal to all federal, state and local government web resources and services.